sensor_id;sensor_type;location;lat;lon;timestamp;temperature;humidity
43862;DHT22;29510;52.140;5.034;2022-11-21T00:08:33;3.10;99.90
43862;DHT22;29510;52.140;5.034;2022-11-21T00:18:35;3.10;99.90
43862;DHT22;29510;52.140;5.034;2022-11-21T00:28:36;3.20;99.90
43862;DHT22;29510;52.140;5.034;2022-11-21T00:38:37;3.20;99.90
43862;DHT22;29510;52.140;5.034;2022-11-21T00:48:38;3.10;99.90
43862;DHT22;29510;52.140;5.034;2022-11-21T00:58:39;3.10;99.90
43862;DHT22;29510;52.140;5.034;2022-11-21T01:08:42;3.00;99.90
43862;DHT22;29510;52.140;5.034;2022-11-21T01:18:44;3.10;99.90
43862;DHT22;29510;52.140;5.034;2022-11-21T01:28:45;3.00;99.90
43862;DHT22;29510;52.140;5.034;2022-11-21T01:38:49;3.00;99.90
43862;DHT22;29510;52.140;5.034;2022-11-21T01:58:56;3.00;99.90
43862;DHT22;29510;52.140;5.034;2022-11-21T02:08:58;3.00;99.90
43862;DHT22;29510;52.140;5.034;2022-11-21T02:19:00;3.00;99.90
43862;DHT22;29510;52.140;5.034;2022-11-21T02:29:01;3.00;99.90
43862;DHT22;29510;52.140;5.034;2022-11-21T02:39:04;2.80;99.90
43862;DHT22;29510;52.140;5.034;2022-11-21T02:49:07;2.80;99.90
43862;DHT22;29510;52.140;5.034;2022-11-21T02:59:09;2.90;99.90
43862;DHT22;29510;52.140;5.034;2022-11-21T03:09:10;2.80;99.90
43862;DHT22;29510;52.140;5.034;2022-11-21T03:19:12;2.70;99.90
43862;DHT22;29510;52.140;5.034;2022-11-21T03:29:13;2.80;99.90
43862;DHT22;29510;52.140;5.034;2022-11-21T03:39:14;2.60;99.90
43862;DHT22;29510;52.140;5.034;2022-11-21T03:49:15;2.50;99.90
43862;DHT22;29510;52.140;5.034;2022-11-21T03:59:16;2.50;99.90
43862;DHT22;29510;52.140;5.034;2022-11-21T04:09:17;2.60;99.90
43862;DHT22;29510;52.140;5.034;2022-11-21T04:19:18;2.60;99.90
43862;DHT22;29510;52.140;5.034;2022-11-21T04:29:19;2.70;99.90
43862;DHT22;29510;52.140;5.034;2022-11-21T04:39:20;2.60;99.90
43862;DHT22;29510;52.140;5.034;2022-11-21T04:49:21;2.70;99.90
43862;DHT22;29510;52.140;5.034;2022-11-21T04:59:22;2.70;99.90
43862;DHT22;29510;52.140;5.034;2022-11-21T05:09:23;2.70;99.90
43862;DHT22;29510;52.140;5.034;2022-11-21T05:19:24;2.70;99.90
43862;DHT22;29510;52.140;5.034;2022-11-21T05:29:25;2.70;99.90
43862;DHT22;29510;52.140;5.034;2022-11-21T05:39:26;2.70;99.90
43862;DHT22;29510;52.140;5.034;2022-11-21T05:49:27;2.80;99.90
43862;DHT22;29510;52.140;5.034;2022-11-21T05:59:28;2.90;99.90
43862;DHT22;29510;52.140;5.034;2022-11-21T06:09:29;3.00;99.90
43862;DHT22;29510;52.140;5.034;2022-11-21T06:19:30;3.00;99.90
43862;DHT22;29510;52.140;5.034;2022-11-21T06:29:31;3.10;99.90
43862;DHT22;29510;52.140;5.034;2022-11-21T06:39:32;3.20;99.90
43862;DHT22;29510;52.140;5.034;2022-11-21T06:49:34;3.20;99.90
43862;DHT22;29510;52.140;5.034;2022-11-21T06:59:35;3.30;99.90
43862;DHT22;29510;52.140;5.034;2022-11-21T07:09:36;3.40;99.90
43862;DHT22;29510;52.140;5.034;2022-11-21T07:19:37;3.40;99.90
43862;DHT22;29510;52.140;5.034;2022-11-21T07:29:38;3.50;99.90
43862;DHT22;29510;52.140;5.034;2022-11-21T07:39:39;3.60;99.90
43862;DHT22;29510;52.140;5.034;2022-11-21T07:49:40;3.70;99.90
43862;DHT22;29510;52.140;5.034;2022-11-21T07:59:41;3.80;99.90
43862;DHT22;29510;52.140;5.034;2022-11-21T08:09:42;3.90;99.90
43862;DHT22;29510;52.140;5.034;2022-11-21T08:19:43;4.00;99.90
43862;DHT22;29510;52.140;5.034;2022-11-21T08:29:44;4.00;99.90
43862;DHT22;29510;52.140;5.034;2022-11-21T08:39:45;4.10;99.90
43862;DHT22;29510;52.140;5.034;2022-11-21T08:49:47;4.20;99.90
43862;DHT22;29510;52.140;5.034;2022-11-21T08:59:48;4.40;99.90
43862;DHT22;29510;52.140;5.034;2022-11-21T09:09:49;4.60;99.90
43862;DHT22;29510;52.140;5.034;2022-11-21T09:19:50;4.80;99.90
43862;DHT22;29510;52.140;5.034;2022-11-21T09:29:51;4.90;99.90
43862;DHT22;29510;52.140;5.034;2022-11-21T09:39:52;5.00;99.90
43862;DHT22;29510;52.140;5.034;2022-11-21T10:00:24;5.10;99.90
43862;DHT22;29510;52.140;5.034;2022-11-21T10:30:44;5.70;99.90
43862;DHT22;29510;52.140;5.034;2022-11-21T11:11:28;7.40;99.90
43862;DHT22;29510;52.140;5.034;2022-11-21T11:31:49;8.30;99.90
43862;DHT22;29510;52.140;5.034;2022-11-21T11:42:07;8.50;99.90
43862;DHT22;29510;52.140;5.034;2022-11-21T11:52:33;9.30;99.90
43862;DHT22;29510;52.140;5.034;2022-11-21T12:13:27;10.40;99.90
43862;DHT22;29510;52.140;5.034;2022-11-21T12:23:45;10.50;99.90
43862;DHT22;29510;52.140;5.034;2022-11-21T12:34:10;10.70;99.90
43862;DHT22;29510;52.140;5.034;2022-11-21T13:04:44;9.00;99.90
43862;DHT22;29510;52.140;5.034;2022-11-21T13:15:02;8.60;99.90
43862;DHT22;29510;52.140;5.034;2022-11-21T13:25:11;8.60;99.90
43862;DHT22;29510;52.140;5.034;2022-11-21T13:45:46;8.40;99.90
43862;DHT22;29510;52.140;5.034;2022-11-21T13:56:23;8.30;99.90
43862;DHT22;29510;52.140;5.034;2022-11-21T14:16:40;8.20;99.90
43862;DHT22;29510;52.140;5.034;2022-11-21T14:26:48;8.10;99.90
43862;DHT22;29510;52.140;5.034;2022-11-21T14:36:50;8.10;99.90
43862;DHT22;29510;52.140;5.034;2022-11-21T14:47:04;8.10;99.90
43862;DHT22;29510;52.140;5.034;2022-11-21T14:57:18;8.10;99.90
43862;DHT22;29510;52.140;5.034;2022-11-21T15:07:26;8.00;99.90
43862;DHT22;29510;52.140;5.034;2022-11-21T15:17:27;8.00;99.90
43862;DHT22;29510;52.140;5.034;2022-11-21T15:27:31;7.90;99.90
43862;DHT22;29510;52.140;5.034;2022-11-21T15:37:32;7.90;99.90
43862;DHT22;29510;52.140;5.034;2022-11-21T15:47:33;7.80;99.90
43862;DHT22;29510;52.140;5.034;2022-11-21T15:57:34;7.90;99.90
43862;DHT22;29510;52.140;5.034;2022-11-21T16:07:35;7.80;99.90
43862;DHT22;29510;52.140;5.034;2022-11-21T16:17:36;7.80;99.90
43862;DHT22;29510;52.140;5.034;2022-11-21T16:27:39;7.70;99.90
43862;DHT22;29510;52.140;5.034;2022-11-21T16:37:40;7.70;99.90
43862;DHT22;29510;52.140;5.034;2022-11-21T16:47:41;7.60;99.90
43862;DHT22;29510;52.140;5.034;2022-11-21T16:57:42;7.60;99.90
43862;DHT22;29510;52.140;5.034;2022-11-21T17:07:43;7.50;99.90
43862;DHT22;29510;52.140;5.034;2022-11-21T17:17:44;7.30;99.90
43862;DHT22;29510;52.140;5.034;2022-11-21T17:27:45;7.00;99.90
43862;DHT22;29510;52.140;5.034;2022-11-21T17:37:46;6.90;99.90
43862;DHT22;29510;52.140;5.034;2022-11-21T17:47:47;6.90;99.90
43862;DHT22;29510;52.140;5.034;2022-11-21T17:57:48;6.90;99.90
43862;DHT22;29510;52.140;5.034;2022-11-21T18:07:49;6.90;99.90
43862;DHT22;29510;52.140;5.034;2022-11-21T18:17:50;6.90;99.90
43862;DHT22;29510;52.140;5.034;2022-11-21T18:27:51;7.00;99.90
43862;DHT22;29510;52.140;5.034;2022-11-21T18:37:52;7.00;99.90
43862;DHT22;29510;52.140;5.034;2022-11-21T18:47:53;7.10;99.90
43862;DHT22;29510;52.140;5.034;2022-11-21T18:57:54;7.10;99.90
43862;DHT22;29510;52.140;5.034;2022-11-21T19:07:55;7.20;99.90
43862;DHT22;29510;52.140;5.034;2022-11-21T19:17:57;7.30;99.90
43862;DHT22;29510;52.140;5.034;2022-11-21T19:27:59;7.20;99.90
43862;DHT22;29510;52.140;5.034;2022-11-21T19:38:00;7.20;99.90
43862;DHT22;29510;52.140;5.034;2022-11-21T19:48:01;7.20;99.90
43862;DHT22;29510;52.140;5.034;2022-11-21T19:58:02;7.00;99.90
43862;DHT22;29510;52.140;5.034;2022-11-21T20:08:03;6.90;99.90
43862;DHT22;29510;52.140;5.034;2022-11-21T20:18:05;6.80;99.90
43862;DHT22;29510;52.140;5.034;2022-11-21T20:28:05;6.80;99.90
43862;DHT22;29510;52.140;5.034;2022-11-21T20:38:06;6.70;99.90
43862;DHT22;29510;52.140;5.034;2022-11-21T20:48:07;6.60;99.90
43862;DHT22;29510;52.140;5.034;2022-11-21T20:58:08;6.70;99.90
43862;DHT22;29510;52.140;5.034;2022-11-21T21:08:09;6.70;99.90
43862;DHT22;29510;52.140;5.034;2022-11-21T21:18:10;6.70;99.90
43862;DHT22;29510;52.140;5.034;2022-11-21T21:28:12;6.70;99.90
43862;DHT22;29510;52.140;5.034;2022-11-21T21:38:13;6.70;99.90
43862;DHT22;29510;52.140;5.034;2022-11-21T21:48:14;6.70;99.90
43862;DHT22;29510;52.140;5.034;2022-11-21T21:58:15;6.70;99.90
43862;DHT22;29510;52.140;5.034;2022-11-21T22:08:16;6.70;99.90
43862;DHT22;29510;52.140;5.034;2022-11-21T22:18:17;6.70;99.90
43862;DHT22;29510;52.140;5.034;2022-11-21T22:28:18;6.70;99.90
43862;DHT22;29510;52.140;5.034;2022-11-21T22:38:20;6.70;99.90
43862;DHT22;29510;52.140;5.034;2022-11-21T22:48:21;6.70;99.90
43862;DHT22;29510;52.140;5.034;2022-11-21T22:58:22;6.80;99.90
43862;DHT22;29510;52.140;5.034;2022-11-21T23:08:23;6.80;99.90
43862;DHT22;29510;52.140;5.034;2022-11-21T23:18:24;6.80;99.90
43862;DHT22;29510;52.140;5.034;2022-11-21T23:28:26;6.80;99.90
43862;DHT22;29510;52.140;5.034;2022-11-21T23:38:27;6.80;99.90
43862;DHT22;29510;52.140;5.034;2022-11-21T23:48:28;6.90;99.90
43862;DHT22;29510;52.140;5.034;2022-11-21T23:58:29;6.90;99.90
